sensor_id;sensor_type;location;lat;lon;timestamp;P1;durP1;ratioP1;P2;durP2;ratioP2
54977;SDS011;40873;47.522;19.106;2022-08-19T00:02:02;10.55;;;7.70;;
54977;SDS011;40873;47.522;19.106;2022-08-19T00:04:30;10.85;;;7.32;;
54977;SDS011;40873;47.522;19.106;2022-08-19T00:07:02;9.63;;;7.30;;
54977;SDS011;40873;47.522;19.106;2022-08-19T00:09:30;10.65;;;6.78;;
54977;SDS011;40873;47.522;19.106;2022-08-19T00:11:57;10.25;;;7.57;;
54977;SDS011;40873;47.522;19.106;2022-08-19T00:14:25;8.52;;;6.65;;
54977;SDS011;40873;47.522;19.106;2022-08-19T00:16:53;11.57;;;7.40;;
54977;SDS011;40873;47.522;19.106;2022-08-19T00:19:21;10.48;;;7.43;;
54977;SDS011;40873;47.522;19.106;2022-08-19T00:21:48;9.50;;;7.60;;
54977;SDS011;40873;47.522;19.106;2022-08-19T00:24:15;12.48;;;8.10;;
54977;SDS011;40873;47.522;19.106;2022-08-19T00:26:43;13.75;;;7.80;;
54977;SDS011;40873;47.522;19.106;2022-08-19T00:29:12;8.95;;;7.32;;
54977;SDS011;40873;47.522;19.106;2022-08-19T00:31:41;11.60;;;7.22;;
54977;SDS011;40873;47.522;19.106;2022-08-19T00:34:09;12.77;;;7.00;;
54977;SDS011;40873;47.522;19.106;2022-08-19T00:36:38;10.88;;;7.72;;
54977;SDS011;40873;47.522;19.106;2022-08-19T00:39:06;11.93;;;8.35;;
54977;SDS011;40873;47.522;19.106;2022-08-19T00:41:33;14.55;;;8.25;;
54977;SDS011;40873;47.522;19.106;2022-08-19T00:44:06;9.45;;;7.43;;
54977;SDS011;40873;47.522;19.106;2022-08-19T00:46:38;9.85;;;7.22;;
54977;SDS011;40873;47.522;19.106;2022-08-19T00:49:12;10.75;;;7.63;;
54977;SDS011;40873;47.522;19.106;2022-08-19T00:51:44;12.48;;;8.02;;
54977;SDS011;40873;47.522;19.106;2022-08-19T00:54:13;13.60;;;8.55;;
54977;SDS011;40873;47.522;19.106;2022-08-19T00:56:41;9.50;;;7.22;;
54977;SDS011;40873;47.522;19.106;2022-08-19T00:59:09;13.80;;;8.27;;
54977;SDS011;40873;47.522;19.106;2022-08-19T01:01:38;11.75;;;7.28;;
54977;SDS011;40873;47.522;19.106;2022-08-19T01:04:07;12.77;;;9.48;;
54977;SDS011;40873;47.522;19.106;2022-08-19T01:06:35;10.25;;;8.00;;
54977;SDS011;40873;47.522;19.106;2022-08-19T01:09:04;12.50;;;7.95;;
54977;SDS011;40873;47.522;19.106;2022-08-19T01:11:33;9.10;;;6.95;;
54977;SDS011;40873;47.522;19.106;2022-08-19T01:14:01;14.60;;;7.50;;
54977;SDS011;40873;47.522;19.106;2022-08-19T01:16:30;10.05;;;7.40;;
54977;SDS011;40873;47.522;19.106;2022-08-19T01:18:59;9.05;;;8.02;;
54977;SDS011;40873;47.522;19.106;2022-08-19T01:21:31;12.13;;;7.82;;
54977;SDS011;40873;47.522;19.106;2022-08-19T01:24:06;14.57;;;7.82;;
54977;SDS011;40873;47.522;19.106;2022-08-19T01:26:37;11.07;;;7.57;;
54977;SDS011;40873;47.522;19.106;2022-08-19T01:29:09;11.05;;;8.02;;
54977;SDS011;40873;47.522;19.106;2022-08-19T01:31:36;9.27;;;7.57;;
54977;SDS011;40873;47.522;19.106;2022-08-19T01:34:05;9.32;;;7.30;;
54977;SDS011;40873;47.522;19.106;2022-08-19T01:36:38;11.02;;;8.32;;
54977;SDS011;40873;47.522;19.106;2022-08-19T01:39:10;12.30;;;7.90;;
54977;SDS011;40873;47.522;19.106;2022-08-19T01:41:39;9.00;;;7.50;;
54977;SDS011;40873;47.522;19.106;2022-08-19T01:44:07;10.40;;;7.72;;
54977;SDS011;40873;47.522;19.106;2022-08-19T01:46:45;11.20;;;7.97;;
54977;SDS011;40873;47.522;19.106;2022-08-19T01:49:14;14.40;;;7.95;;
54977;SDS011;40873;47.522;19.106;2022-08-19T01:51:42;12.55;;;8.00;;
54977;SDS011;40873;47.522;19.106;2022-08-19T01:54:09;12.18;;;7.65;;
54977;SDS011;40873;47.522;19.106;2022-08-19T01:56:38;10.20;;;7.70;;
54977;SDS011;40873;47.522;19.106;2022-08-19T01:59:08;10.35;;;7.63;;
54977;SDS011;40873;47.522;19.106;2022-08-19T02:01:38;9.93;;;8.27;;
54977;SDS011;40873;47.522;19.106;2022-08-19T02:04:05;13.25;;;8.20;;
54977;SDS011;40873;47.522;19.106;2022-08-19T02:06:32;12.70;;;8.82;;
54977;SDS011;40873;47.522;19.106;2022-08-19T02:08:59;13.32;;;8.27;;
54977;SDS011;40873;47.522;19.106;2022-08-19T02:11:31;12.70;;;8.23;;
54977;SDS011;40873;47.522;19.106;2022-08-19T02:16:28;10.32;;;7.47;;
54977;SDS011;40873;47.522;19.106;2022-08-19T02:18:56;12.55;;;8.65;;
54977;SDS011;40873;47.522;19.106;2022-08-19T02:21:27;11.30;;;8.45;;
54977;SDS011;40873;47.522;19.106;2022-08-19T02:23:55;14.50;;;8.65;;
54977;SDS011;40873;47.522;19.106;2022-08-19T02:26:23;26.13;;;8.95;;
54977;SDS011;40873;47.522;19.106;2022-08-19T02:28:53;25.75;;;9.98;;
54977;SDS011;40873;47.522;19.106;2022-08-19T02:31:21;16.77;;;8.07;;
54977;SDS011;40873;47.522;19.106;2022-08-19T02:33:51;13.13;;;8.27;;
54977;SDS011;40873;47.522;19.106;2022-08-19T02:36:23;14.00;;;8.43;;
54977;SDS011;40873;47.522;19.106;2022-08-19T02:38:51;13.95;;;9.68;;
54977;SDS011;40873;47.522;19.106;2022-08-19T02:41:24;14.70;;;9.70;;
54977;SDS011;40873;47.522;19.106;2022-08-19T02:43:54;12.80;;;8.30;;
54977;SDS011;40873;47.522;19.106;2022-08-19T02:46:44;13.32;;;8.35;;
54977;SDS011;40873;47.522;19.106;2022-08-19T02:49:13;14.32;;;8.80;;
54977;SDS011;40873;47.522;19.106;2022-08-19T02:51:44;13.98;;;9.65;;
54977;SDS011;40873;47.522;19.106;2022-08-19T02:54:12;14.23;;;8.77;;
54977;SDS011;40873;47.522;19.106;2022-08-19T02:56:40;13.18;;;8.45;;
54977;SDS011;40873;47.522;19.106;2022-08-19T02:59:09;13.10;;;9.45;;
54977;SDS011;40873;47.522;19.106;2022-08-19T03:01:38;12.02;;;9.57;;
54977;SDS011;40873;47.522;19.106;2022-08-19T03:04:10;12.07;;;9.60;;
54977;SDS011;40873;47.522;19.106;2022-08-19T03:06:40;14.60;;;10.00;;
54977;SDS011;40873;47.522;19.106;2022-08-19T03:09:09;15.57;;;9.73;;
54977;SDS011;40873;47.522;19.106;2022-08-19T03:11:36;13.85;;;9.75;;
54977;SDS011;40873;47.522;19.106;2022-08-19T03:14:04;14.80;;;9.70;;
54977;SDS011;40873;47.522;19.106;2022-08-19T03:16:47;13.93;;;10.20;;
54977;SDS011;40873;47.522;19.106;2022-08-19T03:19:16;18.23;;;9.82;;
54977;SDS011;40873;47.522;19.106;2022-08-19T03:21:45;15.35;;;10.13;;
54977;SDS011;40873;47.522;19.106;2022-08-19T03:24:13;15.70;;;9.65;;
54977;SDS011;40873;47.522;19.106;2022-08-19T03:26:45;31.67;;;10.63;;
54977;SDS011;40873;47.522;19.106;2022-08-19T03:29:14;11.30;;;7.82;;
54977;SDS011;40873;47.522;19.106;2022-08-19T03:31:56;14.82;;;9.60;;
54977;SDS011;40873;47.522;19.106;2022-08-19T03:34:31;12.63;;;10.30;;
54977;SDS011;40873;47.522;19.106;2022-08-19T03:37:03;16.52;;;9.23;;
54977;SDS011;40873;47.522;19.106;2022-08-19T03:39:32;13.80;;;9.15;;
54977;SDS011;40873;47.522;19.106;2022-08-19T03:42:02;11.68;;;8.98;;
54977;SDS011;40873;47.522;19.106;2022-08-19T03:44:49;15.13;;;8.90;;
54977;SDS011;40873;47.522;19.106;2022-08-19T03:47:16;10.38;;;8.50;;
54977;SDS011;40873;47.522;19.106;2022-08-19T03:49:43;10.55;;;7.97;;
54977;SDS011;40873;47.522;19.106;2022-08-19T03:52:11;12.13;;;8.70;;
54977;SDS011;40873;47.522;19.106;2022-08-19T03:54:38;14.95;;;8.70;;
54977;SDS011;40873;47.522;19.106;2022-08-19T03:57:05;11.20;;;8.85;;
54977;SDS011;40873;47.522;19.106;2022-08-19T03:59:33;11.15;;;8.05;;
54977;SDS011;40873;47.522;19.106;2022-08-19T04:02:03;10.75;;;8.85;;
54977;SDS011;40873;47.522;19.106;2022-08-19T04:04:36;13.45;;;8.75;;
54977;SDS011;40873;47.522;19.106;2022-08-19T04:07:05;13.63;;;9.18;;
54977;SDS011;40873;47.522;19.106;2022-08-19T04:09:33;12.18;;;9.00;;
54977;SDS011;40873;47.522;19.106;2022-08-19T04:12:00;16.52;;;9.65;;
54977;SDS011;40873;47.522;19.106;2022-08-19T04:14:28;10.63;;;8.00;;
54977;SDS011;40873;47.522;19.106;2022-08-19T04:17:00;15.07;;;8.33;;
54977;SDS011;40873;47.522;19.106;2022-08-19T04:19:30;12.88;;;8.43;;
54977;SDS011;40873;47.522;19.106;2022-08-19T04:21:57;16.38;;;10.32;;
54977;SDS011;40873;47.522;19.106;2022-08-19T04:24:24;11.25;;;8.90;;
54977;SDS011;40873;47.522;19.106;2022-08-19T04:26:52;10.52;;;8.77;;
54977;SDS011;40873;47.522;19.106;2022-08-19T04:29:20;13.65;;;8.90;;
54977;SDS011;40873;47.522;19.106;2022-08-19T04:31:52;10.00;;;8.68;;
54977;SDS011;40873;47.522;19.106;2022-08-19T04:34:21;12.35;;;8.20;;
54977;SDS011;40873;47.522;19.106;2022-08-19T04:36:51;14.35;;;9.68;;
54977;SDS011;40873;47.522;19.106;2022-08-19T04:39:27;15.32;;;9.20;;
54977;SDS011;40873;47.522;19.106;2022-08-19T04:42:16;16.10;;;8.77;;
54977;SDS011;40873;47.522;19.106;2022-08-19T04:45:03;16.65;;;9.38;;
54977;SDS011;40873;47.522;19.106;2022-08-19T04:47:35;12.70;;;8.25;;
54977;SDS011;40873;47.522;19.106;2022-08-19T04:50:25;10.88;;;7.75;;
54977;SDS011;40873;47.522;19.106;2022-08-19T04:52:52;10.80;;;8.45;;
54977;SDS011;40873;47.522;19.106;2022-08-19T04:55:22;15.35;;;9.77;;
54977;SDS011;40873;47.522;19.106;2022-08-19T04:57:52;14.07;;;8.82;;
54977;SDS011;40873;47.522;19.106;2022-08-19T05:00:20;14.93;;;8.52;;
54977;SDS011;40873;47.522;19.106;2022-08-19T05:02:47;15.52;;;8.43;;
54977;SDS011;40873;47.522;19.106;2022-08-19T05:05:15;13.25;;;8.07;;
54977;SDS011;40873;47.522;19.106;2022-08-19T05:07:43;13.43;;;8.13;;
54977;SDS011;40873;47.522;19.106;2022-08-19T05:10:10;14.55;;;8.77;;
54977;SDS011;40873;47.522;19.106;2022-08-19T05:12:38;11.05;;;8.73;;
54977;SDS011;40873;47.522;19.106;2022-08-19T05:15:05;13.52;;;9.02;;
54977;SDS011;40873;47.522;19.106;2022-08-19T05:17:34;12.13;;;8.57;;
54977;SDS011;40873;47.522;19.106;2022-08-19T05:20:05;14.93;;;8.38;;
54977;SDS011;40873;47.522;19.106;2022-08-19T05:22:52;13.23;;;8.35;;
54977;SDS011;40873;47.522;19.106;2022-08-19T05:25:20;16.13;;;8.10;;
54977;SDS011;40873;47.522;19.106;2022-08-19T05:27:48;13.48;;;8.77;;
54977;SDS011;40873;47.522;19.106;2022-08-19T05:30:15;13.07;;;7.70;;
54977;SDS011;40873;47.522;19.106;2022-08-19T05:32:43;12.60;;;7.60;;
54977;SDS011;40873;47.522;19.106;2022-08-19T05:35:10;11.80;;;7.38;;
54977;SDS011;40873;47.522;19.106;2022-08-19T05:37:37;12.38;;;7.13;;
54977;SDS011;40873;47.522;19.106;2022-08-19T05:40:07;17.70;;;7.55;;
54977;SDS011;40873;47.522;19.106;2022-08-19T05:42:35;13.15;;;7.90;;
54977;SDS011;40873;47.522;19.106;2022-08-19T05:45:03;12.00;;;7.60;;
54977;SDS011;40873;47.522;19.106;2022-08-19T05:47:31;10.25;;;7.22;;
54977;SDS011;40873;47.522;19.106;2022-08-19T05:49:58;14.13;;;7.03;;
54977;SDS011;40873;47.522;19.106;2022-08-19T05:52:30;13.02;;;8.00;;
54977;SDS011;40873;47.522;19.106;2022-08-19T05:54:59;12.30;;;7.10;;
54977;SDS011;40873;47.522;19.106;2022-08-19T05:57:26;13.25;;;7.55;;
54977;SDS011;40873;47.522;19.106;2022-08-19T05:59:55;11.80;;;7.30;;
54977;SDS011;40873;47.522;19.106;2022-08-19T06:02:25;11.27;;;7.05;;
54977;SDS011;40873;47.522;19.106;2022-08-19T06:04:53;10.27;;;6.57;;
54977;SDS011;40873;47.522;19.106;2022-08-19T06:07:20;15.82;;;8.07;;
54977;SDS011;40873;47.522;19.106;2022-08-19T06:09:47;10.38;;;7.05;;
54977;SDS011;40873;47.522;19.106;2022-08-19T06:12:25;14.05;;;6.68;;
54977;SDS011;40873;47.522;19.106;2022-08-19T06:14:55;9.50;;;6.90;;
54977;SDS011;40873;47.522;19.106;2022-08-19T06:17:30;9.50;;;6.20;;
54977;SDS011;40873;47.522;19.106;2022-08-19T06:19:58;9.95;;;6.60;;
54977;SDS011;40873;47.522;19.106;2022-08-19T06:22:26;14.23;;;6.68;;
54977;SDS011;40873;47.522;19.106;2022-08-19T06:24:54;11.52;;;6.72;;
54977;SDS011;40873;47.522;19.106;2022-08-19T06:27:22;8.93;;;6.30;;
54977;SDS011;40873;47.522;19.106;2022-08-19T06:29:49;7.72;;;6.13;;
54977;SDS011;40873;47.522;19.106;2022-08-19T06:32:16;9.98;;;6.80;;
54977;SDS011;40873;47.522;19.106;2022-08-19T06:34:47;11.52;;;6.13;;
54977;SDS011;40873;47.522;19.106;2022-08-19T06:37:14;8.90;;;6.13;;
54977;SDS011;40873;47.522;19.106;2022-08-19T06:39:42;9.30;;;6.13;;
54977;SDS011;40873;47.522;19.106;2022-08-19T06:42:11;9.45;;;6.18;;
54977;SDS011;40873;47.522;19.106;2022-08-19T06:44:40;10.13;;;6.25;;
54977;SDS011;40873;47.522;19.106;2022-08-19T06:47:16;9.80;;;6.20;;
54977;SDS011;40873;47.522;19.106;2022-08-19T06:49:53;8.07;;;5.32;;
54977;SDS011;40873;47.522;19.106;2022-08-19T06:52:27;9.38;;;5.63;;
54977;SDS011;40873;47.522;19.106;2022-08-19T06:54:54;9.48;;;4.97;;
54977;SDS011;40873;47.522;19.106;2022-08-19T06:57:25;8.30;;;5.22;;
54977;SDS011;40873;47.522;19.106;2022-08-19T06:59:52;11.30;;;5.40;;
54977;SDS011;40873;47.522;19.106;2022-08-19T07:02:19;8.43;;;5.50;;
54977;SDS011;40873;47.522;19.106;2022-08-19T07:04:47;8.10;;;5.25;;
54977;SDS011;40873;47.522;19.106;2022-08-19T07:07:18;9.48;;;6.28;;
54977;SDS011;40873;47.522;19.106;2022-08-19T07:09:48;11.57;;;5.35;;
54977;SDS011;40873;47.522;19.106;2022-08-19T07:12:27;8.60;;;5.60;;
54977;SDS011;40873;47.522;19.106;2022-08-19T07:14:57;9.00;;;5.43;;
54977;SDS011;40873;47.522;19.106;2022-08-19T07:17:24;23.45;;;6.30;;
54977;SDS011;40873;47.522;19.106;2022-08-19T07:19:53;10.43;;;6.28;;
54977;SDS011;40873;47.522;19.106;2022-08-19T07:22:21;11.05;;;5.75;;
54977;SDS011;40873;47.522;19.106;2022-08-19T07:24:51;12.43;;;5.38;;
54977;SDS011;40873;47.522;19.106;2022-08-19T07:27:19;7.72;;;5.50;;
54977;SDS011;40873;47.522;19.106;2022-08-19T07:29:51;10.77;;;6.18;;
54977;SDS011;40873;47.522;19.106;2022-08-19T07:32:23;8.10;;;5.15;;
54977;SDS011;40873;47.522;19.106;2022-08-19T07:34:53;13.23;;;6.28;;
54977;SDS011;40873;47.522;19.106;2022-08-19T07:37:23;7.85;;;5.53;;
54977;SDS011;40873;47.522;19.106;2022-08-19T07:39:59;7.28;;;5.85;;
54977;SDS011;40873;47.522;19.106;2022-08-19T07:42:27;12.38;;;5.63;;
54977;SDS011;40873;47.522;19.106;2022-08-19T07:44:56;13.50;;;5.47;;
54977;SDS011;40873;47.522;19.106;2022-08-19T07:47:24;7.90;;;5.70;;
54977;SDS011;40873;47.522;19.106;2022-08-19T07:50:11;7.15;;;5.47;;
54977;SDS011;40873;47.522;19.106;2022-08-19T07:52:38;7.43;;;5.45;;
54977;SDS011;40873;47.522;19.106;2022-08-19T07:55:07;8.77;;;5.03;;
54977;SDS011;40873;47.522;19.106;2022-08-19T07:57:55;7.35;;;5.93;;
54977;SDS011;40873;47.522;19.106;2022-08-19T08:00:25;8.50;;;5.47;;
54977;SDS011;40873;47.522;19.106;2022-08-19T08:02:53;9.10;;;6.45;;
54977;SDS011;40873;47.522;19.106;2022-08-19T08:05:22;7.07;;;5.30;;
54977;SDS011;40873;47.522;19.106;2022-08-19T08:08:10;6.50;;;5.50;;
54977;SDS011;40873;47.522;19.106;2022-08-19T08:10:56;6.55;;;5.25;;
54977;SDS011;40873;47.522;19.106;2022-08-19T08:13:23;7.38;;;5.85;;
54977;SDS011;40873;47.522;19.106;2022-08-19T08:15:52;7.45;;;5.28;;
54977;SDS011;40873;47.522;19.106;2022-08-19T08:18:25;9.95;;;5.10;;
54977;SDS011;40873;47.522;19.106;2022-08-19T08:20:54;8.50;;;4.90;;
54977;SDS011;40873;47.522;19.106;2022-08-19T08:23:22;9.82;;;4.80;;
54977;SDS011;40873;47.522;19.106;2022-08-19T08:25:52;7.60;;;4.57;;
54977;SDS011;40873;47.522;19.106;2022-08-19T08:28:21;8.63;;;4.95;;
54977;SDS011;40873;47.522;19.106;2022-08-19T08:30:49;6.72;;;4.80;;
54977;SDS011;40873;47.522;19.106;2022-08-19T08:33:18;9.10;;;5.05;;
54977;SDS011;40873;47.522;19.106;2022-08-19T08:38:30;6.97;;;4.60;;
54977;SDS011;40873;47.522;19.106;2022-08-19T08:41:09;8.02;;;5.13;;
54977;SDS011;40873;47.522;19.106;2022-08-19T08:43:52;6.03;;;4.70;;
54977;SDS011;40873;47.522;19.106;2022-08-19T08:46:31;6.32;;;5.20;;
54977;SDS011;40873;47.522;19.106;2022-08-19T08:51:43;6.60;;;4.95;;
54977;SDS011;40873;47.522;19.106;2022-08-19T08:54:26;6.40;;;5.10;;
54977;SDS011;40873;47.522;19.106;2022-08-19T08:57:00;8.98;;;4.72;;
54977;SDS011;40873;47.522;19.106;2022-08-19T08:59:31;10.48;;;5.40;;
54977;SDS011;40873;47.522;19.106;2022-08-19T09:02:03;10.13;;;4.78;;
54977;SDS011;40873;47.522;19.106;2022-08-19T09:04:30;9.13;;;4.53;;
54977;SDS011;40873;47.522;19.106;2022-08-19T09:10:04;6.63;;;4.93;;
54977;SDS011;40873;47.522;19.106;2022-08-19T09:15:12;6.18;;;4.78;;
54977;SDS011;40873;47.522;19.106;2022-08-19T09:17:41;6.50;;;5.20;;
54977;SDS011;40873;47.522;19.106;2022-08-19T09:22:36;9.02;;;4.65;;
54977;SDS011;40873;47.522;19.106;2022-08-19T09:25:05;7.82;;;4.10;;
54977;SDS011;40873;47.522;19.106;2022-08-19T09:27:35;9.13;;;4.63;;
54977;SDS011;40873;47.522;19.106;2022-08-19T09:30:16;6.55;;;5.13;;
54977;SDS011;40873;47.522;19.106;2022-08-19T09:32:50;6.70;;;5.18;;
54977;SDS011;40873;47.522;19.106;2022-08-19T09:35:23;7.80;;;4.57;;
54977;SDS011;40873;47.522;19.106;2022-08-19T09:37:53;12.20;;;5.00;;
54977;SDS011;40873;47.522;19.106;2022-08-19T09:40:26;6.40;;;4.20;;
54977;SDS011;40873;47.522;19.106;2022-08-19T09:42:56;8.93;;;4.60;;
54977;SDS011;40873;47.522;19.106;2022-08-19T09:45:24;5.95;;;4.80;;
54977;SDS011;40873;47.522;19.106;2022-08-19T09:47:51;7.30;;;4.70;;
54977;SDS011;40873;47.522;19.106;2022-08-19T09:50:20;9.52;;;4.70;;
54977;SDS011;40873;47.522;19.106;2022-08-19T09:52:49;7.70;;;4.53;;
54977;SDS011;40873;47.522;19.106;2022-08-19T09:55:23;7.47;;;4.50;;
54977;SDS011;40873;47.522;19.106;2022-08-19T09:57:58;8.32;;;5.13;;
54977;SDS011;40873;47.522;19.106;2022-08-19T10:00:26;8.90;;;4.60;;
54977;SDS011;40873;47.522;19.106;2022-08-19T10:02:53;7.65;;;4.75;;
54977;SDS011;40873;47.522;19.106;2022-08-19T10:05:20;9.18;;;4.63;;
54977;SDS011;40873;47.522;19.106;2022-08-19T10:08:08;8.55;;;4.10;;
54977;SDS011;40873;47.522;19.106;2022-08-19T10:10:42;7.22;;;4.65;;
54977;SDS011;40873;47.522;19.106;2022-08-19T10:13:13;9.00;;;4.15;;
54977;SDS011;40873;47.522;19.106;2022-08-19T10:15:42;7.70;;;4.82;;
54977;SDS011;40873;47.522;19.106;2022-08-19T10:18:14;8.25;;;4.95;;
54977;SDS011;40873;47.522;19.106;2022-08-19T10:20:43;6.70;;;4.43;;
54977;SDS011;40873;47.522;19.106;2022-08-19T10:23:18;7.60;;;4.70;;
54977;SDS011;40873;47.522;19.106;2022-08-19T10:25:46;6.43;;;4.28;;
54977;SDS011;40873;47.522;19.106;2022-08-19T10:28:14;7.03;;;4.40;;
54977;SDS011;40873;47.522;19.106;2022-08-19T10:30:41;6.72;;;4.30;;
54977;SDS011;40873;47.522;19.106;2022-08-19T10:33:08;7.88;;;4.70;;
54977;SDS011;40873;47.522;19.106;2022-08-19T10:35:36;7.05;;;4.47;;
54977;SDS011;40873;47.522;19.106;2022-08-19T10:38:22;5.82;;;4.50;;
54977;SDS011;40873;47.522;19.106;2022-08-19T10:40:57;5.65;;;4.63;;
54977;SDS011;40873;47.522;19.106;2022-08-19T10:43:25;6.15;;;4.50;;
54977;SDS011;40873;47.522;19.106;2022-08-19T10:45:52;6.35;;;4.43;;
54977;SDS011;40873;47.522;19.106;2022-08-19T10:48:22;6.18;;;4.20;;
54977;SDS011;40873;47.522;19.106;2022-08-19T10:50:49;6.38;;;4.57;;
54977;SDS011;40873;47.522;19.106;2022-08-19T10:53:34;6.65;;;3.97;;
54977;SDS011;40873;47.522;19.106;2022-08-19T10:56:01;9.88;;;5.10;;
54977;SDS011;40873;47.522;19.106;2022-08-19T10:58:47;6.20;;;4.28;;
54977;SDS011;40873;47.522;19.106;2022-08-19T11:01:14;6.72;;;4.50;;
54977;SDS011;40873;47.522;19.106;2022-08-19T11:03:41;5.78;;;4.00;;
54977;SDS011;40873;47.522;19.106;2022-08-19T11:06:08;7.35;;;4.53;;
54977;SDS011;40873;47.522;19.106;2022-08-19T11:08:35;8.35;;;4.40;;
54977;SDS011;40873;47.522;19.106;2022-08-19T11:11:07;8.27;;;4.50;;
54977;SDS011;40873;47.522;19.106;2022-08-19T11:13:36;6.00;;;4.65;;
54977;SDS011;40873;47.522;19.106;2022-08-19T11:16:10;6.45;;;4.28;;
54977;SDS011;40873;47.522;19.106;2022-08-19T11:18:43;7.25;;;3.75;;
54977;SDS011;40873;47.522;19.106;2022-08-19T11:21:13;5.63;;;4.13;;
54977;SDS011;40873;47.522;19.106;2022-08-19T11:23:47;6.80;;;4.10;;
54977;SDS011;40873;47.522;19.106;2022-08-19T11:26:20;8.98;;;4.20;;
54977;SDS011;40873;47.522;19.106;2022-08-19T11:28:48;7.75;;;4.90;;
54977;SDS011;40873;47.522;19.106;2022-08-19T11:31:19;6.13;;;5.05;;
54977;SDS011;40873;47.522;19.106;2022-08-19T11:33:49;14.25;;;4.20;;
54977;SDS011;40873;47.522;19.106;2022-08-19T11:36:21;6.22;;;4.70;;
54977;SDS011;40873;47.522;19.106;2022-08-19T11:38:49;6.25;;;4.40;;
54977;SDS011;40873;47.522;19.106;2022-08-19T11:41:17;9.18;;;5.00;;
54977;SDS011;40873;47.522;19.106;2022-08-19T11:43:46;6.32;;;4.75;;
54977;SDS011;40873;47.522;19.106;2022-08-19T11:46:14;9.15;;;4.50;;
54977;SDS011;40873;47.522;19.106;2022-08-19T11:48:42;8.02;;;4.60;;
54977;SDS011;40873;47.522;19.106;2022-08-19T11:51:12;6.32;;;4.60;;
54977;SDS011;40873;47.522;19.106;2022-08-19T11:56:08;6.15;;;4.70;;
54977;SDS011;40873;47.522;19.106;2022-08-19T11:58:35;7.43;;;5.30;;
54977;SDS011;40873;47.522;19.106;2022-08-19T12:01:09;8.25;;;4.97;;
54977;SDS011;40873;47.522;19.106;2022-08-19T12:03:44;8.27;;;4.03;;
54977;SDS011;40873;47.522;19.106;2022-08-19T12:06:13;6.40;;;3.97;;
54977;SDS011;40873;47.522;19.106;2022-08-19T12:08:42;12.70;;;7.22;;
54977;SDS011;40873;47.522;19.106;2022-08-19T12:11:11;11.82;;;7.78;;
54977;SDS011;40873;47.522;19.106;2022-08-19T12:13:40;6.65;;;5.95;;
54977;SDS011;40873;47.522;19.106;2022-08-19T12:16:12;6.45;;;4.35;;
54977;SDS011;40873;47.522;19.106;2022-08-19T12:18:43;8.48;;;4.80;;
54977;SDS011;40873;47.522;19.106;2022-08-19T12:21:15;9.77;;;5.10;;
54977;SDS011;40873;47.522;19.106;2022-08-19T12:23:43;15.23;;;4.40;;
54977;SDS011;40873;47.522;19.106;2022-08-19T12:26:18;8.95;;;4.18;;
54977;SDS011;40873;47.522;19.106;2022-08-19T12:28:44;8.52;;;5.07;;
54977;SDS011;40873;47.522;19.106;2022-08-19T12:31:12;6.95;;;4.00;;
54977;SDS011;40873;47.522;19.106;2022-08-19T12:33:39;7.90;;;4.10;;
54977;SDS011;40873;47.522;19.106;2022-08-19T12:36:09;9.27;;;4.43;;
54977;SDS011;40873;47.522;19.106;2022-08-19T12:38:37;7.43;;;4.35;;
54977;SDS011;40873;47.522;19.106;2022-08-19T12:41:06;9.15;;;6.38;;
54977;SDS011;40873;47.522;19.106;2022-08-19T12:43:35;14.98;;;8.52;;
54977;SDS011;40873;47.522;19.106;2022-08-19T12:46:04;16.15;;;11.07;;
54977;SDS011;40873;47.522;19.106;2022-08-19T12:48:36;11.82;;;6.70;;
54977;SDS011;40873;47.522;19.106;2022-08-19T12:51:06;13.48;;;8.15;;
54977;SDS011;40873;47.522;19.106;2022-08-19T12:53:34;10.68;;;7.88;;
54977;SDS011;40873;47.522;19.106;2022-08-19T12:56:05;11.57;;;8.48;;
54977;SDS011;40873;47.522;19.106;2022-08-19T12:58:38;13.63;;;9.65;;
54977;SDS011;40873;47.522;19.106;2022-08-19T13:01:18;16.45;;;10.05;;
54977;SDS011;40873;47.522;19.106;2022-08-19T13:03:48;15.27;;;10.77;;
54977;SDS011;40873;47.522;19.106;2022-08-19T13:06:19;12.05;;;10.68;;
54977;SDS011;40873;47.522;19.106;2022-08-19T13:08:48;14.02;;;10.20;;
54977;SDS011;40873;47.522;19.106;2022-08-19T13:11:16;16.40;;;10.48;;
54977;SDS011;40873;47.522;19.106;2022-08-19T13:13:46;11.00;;;9.85;;
54977;SDS011;40873;47.522;19.106;2022-08-19T13:16:15;11.57;;;9.60;;
54977;SDS011;40873;47.522;19.106;2022-08-19T13:18:42;14.63;;;10.10;;
54977;SDS011;40873;47.522;19.106;2022-08-19T13:21:13;17.27;;;10.40;;
54977;SDS011;40873;47.522;19.106;2022-08-19T13:23:41;12.38;;;9.93;;
54977;SDS011;40873;47.522;19.106;2022-08-19T13:26:09;12.55;;;9.52;;
54977;SDS011;40873;47.522;19.106;2022-08-19T13:28:36;13.98;;;9.65;;
54977;SDS011;40873;47.522;19.106;2022-08-19T13:31:23;16.52;;;10.18;;
54977;SDS011;40873;47.522;19.106;2022-08-19T13:34:10;12.38;;;8.93;;
54977;SDS011;40873;47.522;19.106;2022-08-19T13:36:38;11.38;;;9.32;;
54977;SDS011;40873;47.522;19.106;2022-08-19T13:39:05;19.00;;;8.93;;
54977;SDS011;40873;47.522;19.106;2022-08-19T13:41:34;12.32;;;8.73;;
54977;SDS011;40873;47.522;19.106;2022-08-19T13:44:03;16.70;;;8.82;;
54977;SDS011;40873;47.522;19.106;2022-08-19T13:46:30;14.50;;;8.40;;
54977;SDS011;40873;47.522;19.106;2022-08-19T13:48:57;10.57;;;7.85;;
54977;SDS011;40873;47.522;19.106;2022-08-19T13:51:24;12.68;;;6.85;;
54977;SDS011;40873;47.522;19.106;2022-08-19T13:53:51;12.90;;;6.53;;
54977;SDS011;40873;47.522;19.106;2022-08-19T13:56:18;18.52;;;7.00;;
54977;SDS011;40873;47.522;19.106;2022-08-19T13:58:52;14.05;;;7.55;;
54977;SDS011;40873;47.522;19.106;2022-08-19T14:01:20;9.13;;;6.53;;
54977;SDS011;40873;47.522;19.106;2022-08-19T14:03:50;10.35;;;6.65;;
54977;SDS011;40873;47.522;19.106;2022-08-19T14:06:17;11.35;;;5.78;;
54977;SDS011;40873;47.522;19.106;2022-08-19T14:08:45;10.75;;;7.30;;
54977;SDS011;40873;47.522;19.106;2022-08-19T14:11:12;15.93;;;8.45;;
54977;SDS011;40873;47.522;19.106;2022-08-19T14:13:40;22.48;;;6.90;;
54977;SDS011;40873;47.522;19.106;2022-08-19T14:16:08;25.50;;;6.07;;
54977;SDS011;40873;47.522;19.106;2022-08-19T14:18:37;16.10;;;4.55;;
54977;SDS011;40873;47.522;19.106;2022-08-19T14:21:05;14.27;;;4.53;;
54977;SDS011;40873;47.522;19.106;2022-08-19T14:23:33;15.10;;;4.13;;
54977;SDS011;40873;47.522;19.106;2022-08-19T14:26:13;15.80;;;4.40;;
54977;SDS011;40873;47.522;19.106;2022-08-19T14:28:41;22.77;;;4.20;;
54977;SDS011;40873;47.522;19.106;2022-08-19T14:31:10;17.80;;;3.80;;
54977;SDS011;40873;47.522;19.106;2022-08-19T14:33:39;19.33;;;3.78;;
54977;SDS011;40873;47.522;19.106;2022-08-19T14:36:06;13.32;;;3.80;;
54977;SDS011;40873;47.522;19.106;2022-08-19T14:38:33;14.82;;;4.70;;
54977;SDS011;40873;47.522;19.106;2022-08-19T14:41:11;6.97;;;3.58;;
54977;SDS011;40873;47.522;19.106;2022-08-19T14:43:44;15.50;;;3.88;;
54977;SDS011;40873;47.522;19.106;2022-08-19T14:46:13;12.48;;;3.45;;
54977;SDS011;40873;47.522;19.106;2022-08-19T14:48:42;20.90;;;4.90;;
54977;SDS011;40873;47.522;19.106;2022-08-19T14:51:10;19.42;;;4.05;;
54977;SDS011;40873;47.522;19.106;2022-08-19T14:53:37;11.25;;;3.75;;
54977;SDS011;40873;47.522;19.106;2022-08-19T14:56:11;14.18;;;4.85;;
54977;SDS011;40873;47.522;19.106;2022-08-19T14:58:40;10.95;;;2.58;;
54977;SDS011;40873;47.522;19.106;2022-08-19T15:01:09;13.90;;;3.58;;
54977;SDS011;40873;47.522;19.106;2022-08-19T15:03:37;10.93;;;3.08;;